sensor_id;sensor_type;location;lat;lon;timestamp;pressure;altitude;pressure_sealevel;temperature;humidity
30967;BME280;17649;51.836;8.330;2022-07-09T00:02:01;102205.97;;;17.72;100.00
30967;BME280;17649;51.836;8.330;2022-07-09T00:08:21;102200.53;;;17.89;100.00
30967;BME280;17649;51.836;8.330;2022-07-09T00:11:26;102196.88;;;17.92;100.00
30967;BME280;17649;51.836;8.330;2022-07-09T00:14:31;102188.00;;;17.94;100.00
30967;BME280;17649;51.836;8.330;2022-07-09T00:17:34;102179.78;;;17.86;100.00
30967;BME280;17649;51.836;8.330;2022-07-09T00:20:37;102182.47;;;17.84;100.00
30967;BME280;17649;51.836;8.330;2022-07-09T00:23:46;102178.47;;;17.79;100.00
30967;BME280;17649;51.836;8.330;2022-07-09T00:26:59;102185.66;;;17.75;100.00
30967;BME280;17649;51.836;8.330;2022-07-09T00:33:53;102191.69;;;17.62;100.00
30967;BME280;17649;51.836;8.330;2022-07-09T00:37:02;102199.84;;;17.57;100.00
30967;BME280;17649;51.836;8.330;2022-07-09T00:40:13;102187.09;;;17.51;100.00
30967;BME280;17649;51.836;8.330;2022-07-09T00:43:23;102186.25;;;17.50;100.00
30967;BME280;17649;51.836;8.330;2022-07-09T00:46:32;102191.97;;;17.43;100.00
30967;BME280;17649;51.836;8.330;2022-07-09T00:50:16;102183.31;;;17.41;100.00
30967;BME280;17649;51.836;8.330;2022-07-09T00:53:23;102172.59;;;17.31;100.00
30967;BME280;17649;51.836;8.330;2022-07-09T00:57:00;102176.50;;;17.38;100.00
30967;BME280;17649;51.836;8.330;2022-07-09T01:00:43;102178.69;;;17.46;100.00
30967;BME280;17649;51.836;8.330;2022-07-09T01:07:30;102175.41;;;17.42;100.00
30967;BME280;17649;51.836;8.330;2022-07-09T01:10:38;102173.72;;;17.41;100.00
30967;BME280;17649;51.836;8.330;2022-07-09T01:13:45;102178.59;;;17.47;100.00
30967;BME280;17649;51.836;8.330;2022-07-09T01:17:00;102166.34;;;17.48;100.00
30967;BME280;17649;51.836;8.330;2022-07-09T01:20:13;102165.88;;;17.41;100.00
30967;BME280;17649;51.836;8.330;2022-07-09T01:23:21;102164.56;;;17.48;100.00
30967;BME280;17649;51.836;8.330;2022-07-09T01:26:27;102166.16;;;17.51;100.00
30967;BME280;17649;51.836;8.330;2022-07-09T01:29:31;102151.28;;;17.51;100.00
30967;BME280;17649;51.836;8.330;2022-07-09T01:32:34;102161.56;;;17.54;100.00
30967;BME280;17649;51.836;8.330;2022-07-09T01:35:41;102157.28;;;17.53;100.00
30967;BME280;17649;51.836;8.330;2022-07-09T01:38:45;102147.84;;;17.51;100.00
30967;BME280;17649;51.836;8.330;2022-07-09T01:41:50;102157.66;;;17.47;100.00
30967;BME280;17649;51.836;8.330;2022-07-09T01:44:52;102144.03;;;17.42;100.00
30967;BME280;17649;51.836;8.330;2022-07-09T01:48:05;102143.34;;;17.39;100.00
30967;BME280;17649;51.836;8.330;2022-07-09T01:51:15;102133.34;;;17.31;100.00
30967;BME280;17649;51.836;8.330;2022-07-09T01:54:30;102108.84;;;17.18;100.00
30967;BME280;17649;51.836;8.330;2022-07-09T01:58:38;102136.63;;;17.35;100.00
30967;BME280;17649;51.836;8.330;2022-07-09T02:01:49;102125.84;;;17.25;100.00
30967;BME280;17649;51.836;8.330;2022-07-09T02:08:47;102132.97;;;17.37;100.00
30967;BME280;17649;51.836;8.330;2022-07-09T02:11:51;102132.03;;;17.38;100.00
30967;BME280;17649;51.836;8.330;2022-07-09T02:14:57;102130.53;;;17.34;100.00
30967;BME280;17649;51.836;8.330;2022-07-09T02:18:05;102124.75;;;17.29;100.00
30967;BME280;17649;51.836;8.330;2022-07-09T02:21:13;102128.41;;;17.26;100.00
30967;BME280;17649;51.836;8.330;2022-07-09T02:24:20;102124.16;;;17.24;100.00
30967;BME280;17649;51.836;8.330;2022-07-09T02:27:26;102123.31;;;17.23;100.00
30967;BME280;17649;51.836;8.330;2022-07-09T02:30:35;102124.72;;;17.15;100.00
30967;BME280;17649;51.836;8.330;2022-07-09T02:33:40;102133.13;;;17.20;100.00
30967;BME280;17649;51.836;8.330;2022-07-09T02:36:47;102126.50;;;17.14;100.00
30967;BME280;17649;51.836;8.330;2022-07-09T02:43:21;102112.00;;;17.09;100.00
30967;BME280;17649;51.836;8.330;2022-07-09T02:46:43;102130.69;;;17.17;100.00
30967;BME280;17649;51.836;8.330;2022-07-09T02:50:36;102131.53;;;17.17;100.00
30967;BME280;17649;51.836;8.330;2022-07-09T03:00:49;102124.75;;;17.29;100.00
30967;BME280;17649;51.836;8.330;2022-07-09T03:04:12;102100.53;;;17.25;100.00
30967;BME280;17649;51.836;8.330;2022-07-09T03:07:44;102125.31;;;17.34;100.00
30967;BME280;17649;51.836;8.330;2022-07-09T03:18:33;102113.06;;;17.49;100.00
30967;BME280;17649;51.836;8.330;2022-07-09T03:21:42;102115.88;;;17.46;100.00
30967;BME280;17649;51.836;8.330;2022-07-09T03:28:25;102091.84;;;17.53;100.00
30967;BME280;17649;51.836;8.330;2022-07-09T03:31:37;102099.53;;;17.56;100.00
30967;BME280;17649;51.836;8.330;2022-07-09T03:42:25;102106.56;;;17.70;100.00
30967;BME280;17649;51.836;8.330;2022-07-09T03:45:54;102100.66;;;17.81;100.00
30967;BME280;17649;51.836;8.330;2022-07-09T03:49:05;102086.81;;;17.50;100.00
30967;BME280;17649;51.836;8.330;2022-07-09T04:03:05;102099.34;;;17.59;100.00
30967;BME280;17649;51.836;8.330;2022-07-09T04:06:39;102089.63;;;17.62;100.00
30967;BME280;17649;51.836;8.330;2022-07-09T04:10:10;102088.91;;;17.74;100.00
30967;BME280;17649;51.836;8.330;2022-07-09T04:13:35;102090.94;;;17.83;100.00
30967;BME280;17649;51.836;8.330;2022-07-09T04:16:59;102102.81;;;17.60;100.00
30967;BME280;17649;51.836;8.330;2022-07-09T04:20:10;102092.72;;;17.82;100.00
30967;BME280;17649;51.836;8.330;2022-07-09T04:23:37;102088.88;;;17.88;100.00
30967;BME280;17649;51.836;8.330;2022-07-09T04:27:05;102070.06;;;17.67;100.00
30967;BME280;17649;51.836;8.330;2022-07-09T04:30:20;102068.91;;;17.73;100.00
30967;BME280;17649;51.836;8.330;2022-07-09T04:33:26;102083.06;;;17.83;100.00
30967;BME280;17649;51.836;8.330;2022-07-09T04:36:34;102082.25;;;17.82;100.00
30967;BME280;17649;51.836;8.330;2022-07-09T04:39:50;102082.13;;;17.98;100.00
30967;BME280;17649;51.836;8.330;2022-07-09T04:42:57;102083.81;;;17.85;100.00
30967;BME280;17649;51.836;8.330;2022-07-09T04:46:02;102085.53;;;17.86;100.00
30967;BME280;17649;51.836;8.330;2022-07-09T04:49:07;102077.94;;;17.81;100.00
30967;BME280;17649;51.836;8.330;2022-07-09T04:52:15;102097.56;;;18.03;100.00
30967;BME280;17649;51.836;8.330;2022-07-09T04:55:21;102093.41;;;18.13;100.00
30967;BME280;17649;51.836;8.330;2022-07-09T04:58:24;102091.78;;;18.25;100.00
30967;BME280;17649;51.836;8.330;2022-07-09T05:01:29;102089.38;;;18.22;100.00
30967;BME280;17649;51.836;8.330;2022-07-09T05:04:34;102087.16;;;18.15;100.00
30967;BME280;17649;51.836;8.330;2022-07-09T05:07:40;102092.63;;;17.84;100.00
30967;BME280;17649;51.836;8.330;2022-07-09T05:10:50;102091.09;;;18.08;100.00
30967;BME280;17649;51.836;8.330;2022-07-09T05:13:56;102093.88;;;18.20;100.00
30967;BME280;17649;51.836;8.330;2022-07-09T05:17:21;102095.34;;;18.24;100.00
30967;BME280;17649;51.836;8.330;2022-07-09T05:24:09;102086.75;;;18.22;100.00
30967;BME280;17649;51.836;8.330;2022-07-09T05:27:16;102083.38;;;18.46;100.00
30967;BME280;17649;51.836;8.330;2022-07-09T05:30:48;102077.09;;;18.49;100.00
30967;BME280;17649;51.836;8.330;2022-07-09T05:34:06;102061.59;;;18.46;100.00
30967;BME280;17649;51.836;8.330;2022-07-09T05:41:02;102059.13;;;18.03;100.00
30967;BME280;17649;51.836;8.330;2022-07-09T05:44:25;102079.94;;;18.19;100.00
30967;BME280;17649;51.836;8.330;2022-07-09T05:47:35;102088.47;;;18.35;100.00
30967;BME280;17649;51.836;8.330;2022-07-09T05:50:45;102082.19;;;18.38;100.00
30967;BME280;17649;51.836;8.330;2022-07-09T05:54:18;102054.06;;;18.27;100.00
30967;BME280;17649;51.836;8.330;2022-07-09T05:58:17;102065.44;;;18.40;100.00
30967;BME280;17649;51.836;8.330;2022-07-09T06:01:52;102093.00;;;18.73;100.00
30967;BME280;17649;51.836;8.330;2022-07-09T06:05:17;102088.28;;;19.05;100.00
30967;BME280;17649;51.836;8.330;2022-07-09T06:08:35;102089.28;;;19.02;100.00
30967;BME280;17649;51.836;8.330;2022-07-09T06:12:00;102087.34;;;18.66;100.00
30967;BME280;17649;51.836;8.330;2022-07-09T06:18:51;102082.88;;;18.81;100.00
30967;BME280;17649;51.836;8.330;2022-07-09T06:25:35;102080.69;;;19.13;100.00
30967;BME280;17649;51.836;8.330;2022-07-09T06:29:02;102069.78;;;19.32;100.00
30967;BME280;17649;51.836;8.330;2022-07-09T06:32:10;102053.00;;;19.34;100.00
30967;BME280;17649;51.836;8.330;2022-07-09T06:36:04;102069.38;;;19.51;100.00
30967;BME280;17649;51.836;8.330;2022-07-09T06:39:38;102084.72;;;19.93;100.00
30967;BME280;17649;51.836;8.330;2022-07-09T06:47:16;102059.22;;;19.95;100.00
30967;BME280;17649;51.836;8.330;2022-07-09T06:54:27;102053.41;;;19.54;100.00
30967;BME280;17649;51.836;8.330;2022-07-09T07:05:28;102082.38;;;19.27;100.00
30967;BME280;17649;51.836;8.330;2022-07-09T07:09:32;102068.97;;;19.57;100.00
30967;BME280;17649;51.836;8.330;2022-07-09T07:13:02;102068.56;;;19.87;100.00
30967;BME280;17649;51.836;8.330;2022-07-09T07:20:34;102063.25;;;19.63;100.00
30967;BME280;17649;51.836;8.330;2022-07-09T07:23:56;102057.25;;;20.10;100.00
30967;BME280;17649;51.836;8.330;2022-07-09T07:27:02;102046.47;;;20.26;100.00
30967;BME280;17649;51.836;8.330;2022-07-09T07:30:27;102035.69;;;20.42;100.00
30967;BME280;17649;51.836;8.330;2022-07-09T07:34:05;102051.66;;;20.63;100.00
30967;BME280;17649;51.836;8.330;2022-07-09T07:37:56;102044.63;;;21.43;100.00
30967;BME280;17649;51.836;8.330;2022-07-09T07:41:32;102031.94;;;21.48;100.00
30967;BME280;17649;51.836;8.330;2022-07-09T07:49:09;102032.16;;;20.65;100.00
30967;BME280;17649;51.836;8.330;2022-07-09T07:52:32;102021.59;;;20.43;100.00
30967;BME280;17649;51.836;8.330;2022-07-09T07:56:56;102017.66;;;21.17;100.00
30967;BME280;17649;51.836;8.330;2022-07-09T08:00:30;102009.53;;;21.54;100.00
30967;BME280;17649;51.836;8.330;2022-07-09T08:07:46;101994.44;;;22.10;100.00
30967;BME280;17649;51.836;8.330;2022-07-09T08:14:35;101979.88;;;22.48;100.00
30967;BME280;17649;51.836;8.330;2022-07-09T08:38:04;101998.13;;;20.75;100.00
30967;BME280;17649;51.836;8.330;2022-07-09T08:41:36;101990.25;;;20.75;100.00
30967;BME280;17649;51.836;8.330;2022-07-09T08:45:01;101959.75;;;21.17;100.00
30967;BME280;17649;51.836;8.330;2022-07-09T08:48:52;101981.53;;;21.53;100.00
30967;BME280;17649;51.836;8.330;2022-07-09T08:57:15;101964.75;;;21.97;100.00
30967;BME280;17649;51.836;8.330;2022-07-09T09:04:52;101945.78;;;23.17;100.00
30967;BME280;17649;51.836;8.330;2022-07-09T09:12:07;101955.69;;;22.84;100.00
30967;BME280;17649;51.836;8.330;2022-07-09T09:19:04;101949.19;;;22.68;100.00
30967;BME280;17649;51.836;8.330;2022-07-09T09:33:03;101930.66;;;23.09;100.00
30967;BME280;17649;51.836;8.330;2022-07-09T09:40:51;101942.22;;;22.87;100.00
30967;BME280;17649;51.836;8.330;2022-07-09T09:44:39;101947.34;;;22.38;100.00
30967;BME280;17649;51.836;8.330;2022-07-09T09:55:53;101939.31;;;22.70;100.00
30967;BME280;17649;51.836;8.330;2022-07-09T09:58:59;101934.09;;;22.79;100.00
30967;BME280;17649;51.836;8.330;2022-07-09T10:02:02;101931.00;;;22.23;100.00
30967;BME280;17649;51.836;8.330;2022-07-09T10:05:13;101932.22;;;22.19;100.00
30967;BME280;17649;51.836;8.330;2022-07-09T10:08:19;101931.44;;;22.07;100.00
30967;BME280;17649;51.836;8.330;2022-07-09T10:11:23;101933.25;;;21.95;100.00
30967;BME280;17649;51.836;8.330;2022-07-09T10:14:37;101941.16;;;21.95;100.00
30967;BME280;17649;51.836;8.330;2022-07-09T10:17:48;101932.97;;;22.10;100.00
30967;BME280;17649;51.836;8.330;2022-07-09T10:20:56;101925.72;;;22.44;100.00
30967;BME280;17649;51.836;8.330;2022-07-09T10:24:02;101921.63;;;23.12;100.00
30967;BME280;17649;51.836;8.330;2022-07-09T10:27:16;101915.91;;;23.66;100.00
30967;BME280;17649;51.836;8.330;2022-07-09T10:30:32;101900.72;;;24.17;100.00
30967;BME280;17649;51.836;8.330;2022-07-09T10:36:59;101901.59;;;24.54;100.00
30967;BME280;17649;51.836;8.330;2022-07-09T10:40:12;101889.09;;;24.56;100.00
30967;BME280;17649;51.836;8.330;2022-07-09T10:43:17;101894.72;;;24.34;100.00
30967;BME280;17649;51.836;8.330;2022-07-09T10:46:27;101882.34;;;24.72;100.00
30967;BME280;17649;51.836;8.330;2022-07-09T10:49:30;101875.44;;;24.88;100.00
30967;BME280;17649;51.836;8.330;2022-07-09T10:52:33;101871.59;;;24.36;100.00
30967;BME280;17649;51.836;8.330;2022-07-09T10:55:36;101873.88;;;23.92;100.00
30967;BME280;17649;51.836;8.330;2022-07-09T10:58:45;101880.72;;;23.85;100.00
30967;BME280;17649;51.836;8.330;2022-07-09T11:01:48;101881.13;;;23.90;100.00
30967;BME280;17649;51.836;8.330;2022-07-09T11:04:58;101864.88;;;23.66;100.00
30967;BME280;17649;51.836;8.330;2022-07-09T11:08:02;101871.47;;;23.31;100.00
30967;BME280;17649;51.836;8.330;2022-07-09T11:11:08;101882.16;;;23.20;100.00
30967;BME280;17649;51.836;8.330;2022-07-09T11:14:10;101867.72;;;23.14;100.00
30967;BME280;17649;51.836;8.330;2022-07-09T11:17:17;101872.06;;;22.85;100.00
30967;BME280;17649;51.836;8.330;2022-07-09T11:20:20;101871.47;;;22.81;100.00
30967;BME280;17649;51.836;8.330;2022-07-09T11:23:22;101878.75;;;22.89;100.00
30967;BME280;17649;51.836;8.330;2022-07-09T11:26:27;101871.94;;;23.36;100.00
30967;BME280;17649;51.836;8.330;2022-07-09T11:29:45;101859.06;;;24.38;100.00
30967;BME280;17649;51.836;8.330;2022-07-09T11:32:53;101861.06;;;25.36;100.00
30967;BME280;17649;51.836;8.330;2022-07-09T11:35:56;101863.09;;;25.07;100.00
30967;BME280;17649;51.836;8.330;2022-07-09T11:38:58;101857.75;;;24.52;100.00
30967;BME280;17649;51.836;8.330;2022-07-09T11:42:01;101869.72;;;23.99;100.00
30967;BME280;17649;51.836;8.330;2022-07-09T11:45:02;101865.50;;;24.06;100.00
30967;BME280;17649;51.836;8.330;2022-07-09T11:48:10;101847.22;;;24.42;100.00
30967;BME280;17649;51.836;8.330;2022-07-09T11:51:31;101853.44;;;23.56;100.00
30967;BME280;17649;51.836;8.330;2022-07-09T11:54:35;101857.34;;;23.61;100.00
30967;BME280;17649;51.836;8.330;2022-07-09T11:57:38;101853.16;;;23.39;100.00
30967;BME280;17649;51.836;8.330;2022-07-09T12:00:45;101864.41;;;23.32;100.00
30967;BME280;17649;51.836;8.330;2022-07-09T12:03:53;101844.09;;;23.32;100.00
30967;BME280;17649;51.836;8.330;2022-07-09T12:06:54;101849.81;;;23.57;100.00
30967;BME280;17649;51.836;8.330;2022-07-09T12:10:24;101848.25;;;23.15;100.00
30967;BME280;17649;51.836;8.330;2022-07-09T12:13:31;101846.47;;;23.26;100.00
30967;BME280;17649;51.836;8.330;2022-07-09T12:16:32;101823.84;;;23.81;100.00
30967;BME280;17649;51.836;8.330;2022-07-09T12:19:44;101819.00;;;25.51;100.00
30967;BME280;17649;51.836;8.330;2022-07-09T12:22:47;101799.06;;;26.93;100.00
30967;BME280;17649;51.836;8.330;2022-07-09T12:25:50;101801.53;;;28.72;100.00
30967;BME280;17649;51.836;8.330;2022-07-09T12:28:51;101804.75;;;29.59;97.34
30967;BME280;17649;51.836;8.330;2022-07-09T12:31:59;101799.28;;;28.52;95.38
30967;BME280;17649;51.836;8.330;2022-07-09T12:35:02;101807.41;;;27.96;100.00
30967;BME280;17649;51.836;8.330;2022-07-09T12:38:05;101797.59;;;27.96;100.00
30967;BME280;17649;51.836;8.330;2022-07-09T12:41:10;101797.63;;;27.07;100.00
30967;BME280;17649;51.836;8.330;2022-07-09T12:44:17;101790.16;;;27.59;100.00
30967;BME280;17649;51.836;8.330;2022-07-09T12:47:19;101790.00;;;27.20;100.00
30967;BME280;17649;51.836;8.330;2022-07-09T12:50:29;101771.31;;;28.09;100.00
30967;BME280;17649;51.836;8.330;2022-07-09T12:53:40;101765.69;;;28.04;91.37
30967;BME280;17649;51.836;8.330;2022-07-09T12:56:42;101765.53;;;29.07;83.92
30967;BME280;17649;51.836;8.330;2022-07-09T12:59:48;101759.22;;;28.77;82.83
30967;BME280;17649;51.836;8.330;2022-07-09T13:02:50;101760.41;;;28.74;90.55
30967;BME280;17649;51.836;8.330;2022-07-09T13:05:52;101763.63;;;28.62;84.22
30967;BME280;17649;51.836;8.330;2022-07-09T13:09:03;101751.50;;;28.82;64.36
30967;BME280;17649;51.836;8.330;2022-07-09T13:12:06;101750.63;;;28.36;68.88
30967;BME280;17649;51.836;8.330;2022-07-09T13:15:07;101749.78;;;27.80;75.75
30967;BME280;17649;51.836;8.330;2022-07-09T13:18:10;101747.03;;;29.66;66.50
30967;BME280;17649;51.836;8.330;2022-07-09T13:21:21;101738.09;;;28.75;66.84
30967;BME280;17649;51.836;8.330;2022-07-09T13:24:27;101737.19;;;29.52;62.08
30967;BME280;17649;51.836;8.330;2022-07-09T13:27:29;101732.78;;;30.18;57.81
30967;BME280;17649;51.836;8.330;2022-07-09T13:30:33;101718.28;;;32.24;48.40
30967;BME280;17649;51.836;8.330;2022-07-09T13:33:36;101739.69;;;31.77;46.45
30967;BME280;17649;51.836;8.330;2022-07-09T13:36:39;101713.50;;;32.13;44.21
30967;BME280;17649;51.836;8.330;2022-07-09T13:39:39;101720.31;;;32.16;41.46
30967;BME280;17649;51.836;8.330;2022-07-09T13:42:41;101716.09;;;32.35;41.79
30967;BME280;17649;51.836;8.330;2022-07-09T13:45:46;101718.00;;;30.51;42.42
30967;BME280;17649;51.836;8.330;2022-07-09T13:48:50;101725.00;;;27.87;48.27
30967;BME280;17649;51.836;8.330;2022-07-09T13:51:51;101718.00;;;28.96;50.96
30967;BME280;17649;51.836;8.330;2022-07-09T13:54:52;101714.22;;;29.28;50.75
30967;BME280;17649;51.836;8.330;2022-07-09T13:57:54;101705.19;;;31.26;47.41
30967;BME280;17649;51.836;8.330;2022-07-09T14:00:56;101708.69;;;31.95;42.53
30967;BME280;17649;51.836;8.330;2022-07-09T14:04:00;101706.34;;;30.74;46.17
30967;BME280;17649;51.836;8.330;2022-07-09T14:07:07;101706.59;;;31.00;46.95
30967;BME280;17649;51.836;8.330;2022-07-09T14:10:09;101692.22;;;32.46;39.99
30967;BME280;17649;51.836;8.330;2022-07-09T14:13:26;101683.16;;;33.66;36.97
30967;BME280;17649;51.836;8.330;2022-07-09T14:16:34;101698.63;;;34.22;35.45
30967;BME280;17649;51.836;8.330;2022-07-09T14:19:42;101671.13;;;33.82;33.86
30967;BME280;17649;51.836;8.330;2022-07-09T14:22:43;101704.50;;;30.96;36.79
30967;BME280;17649;51.836;8.330;2022-07-09T14:25:47;101693.22;;;30.79;39.33
30967;BME280;17649;51.836;8.330;2022-07-09T14:28:48;101685.97;;;31.43;37.50
30967;BME280;17649;51.836;8.330;2022-07-09T14:31:59;101704.41;;;30.89;39.12
30967;BME280;17649;51.836;8.330;2022-07-09T14:35:04;101701.56;;;32.83;34.28
30967;BME280;17649;51.836;8.330;2022-07-09T14:38:08;101679.47;;;34.50;31.32
30967;BME280;17649;51.836;8.330;2022-07-09T14:41:16;101678.16;;;31.83;33.63
30967;BME280;17649;51.836;8.330;2022-07-09T14:44:20;101680.66;;;33.71;32.93
30967;BME280;17649;51.836;8.330;2022-07-09T14:47:22;101702.28;;;30.06;42.43
30967;BME280;17649;51.836;8.330;2022-07-09T14:50:23;101702.00;;;28.42;51.52
30967;BME280;17649;51.836;8.330;2022-07-09T14:53:30;101693.94;;;30.30;46.64
30967;BME280;17649;51.836;8.330;2022-07-09T14:56:34;101697.66;;;29.85;47.95
30967;BME280;17649;51.836;8.330;2022-07-09T14:59:37;101688.06;;;29.90;45.01
30967;BME280;17649;51.836;8.330;2022-07-09T15:02:48;101689.75;;;31.56;42.26
30967;BME280;17649;51.836;8.330;2022-07-09T15:05:51;101675.88;;;31.73;47.06
30967;BME280;17649;51.836;8.330;2022-07-09T15:08:59;101676.22;;;32.99;41.61
30967;BME280;17649;51.836;8.330;2022-07-09T15:12:44;101679.91;;;33.25;41.41
30967;BME280;17649;51.836;8.330;2022-07-09T15:15:48;101658.88;;;33.99;40.23
30967;BME280;17649;51.836;8.330;2022-07-09T15:18:53;101680.53;;;33.27;39.12
30967;BME280;17649;51.836;8.330;2022-07-09T15:22:01;101675.75;;;31.95;38.68
30967;BME280;17649;51.836;8.330;2022-07-09T15:25:07;101675.66;;;32.23;41.33
30967;BME280;17649;51.836;8.330;2022-07-09T15:28:16;101687.06;;;31.90;41.18
30967;BME280;17649;51.836;8.330;2022-07-09T15:31:20;101661.28;;;31.83;42.66
30967;BME280;17649;51.836;8.330;2022-07-09T15:34:43;101648.16;;;34.31;36.93
30967;BME280;17649;51.836;8.330;2022-07-09T15:37:50;101665.09;;;34.31;34.47
30967;BME280;17649;51.836;8.330;2022-07-09T15:40:50;101663.06;;;35.15;33.52
30967;BME280;17649;51.836;8.330;2022-07-09T15:44:09;101677.63;;;34.76;33.02
30967;BME280;17649;51.836;8.330;2022-07-09T15:47:44;101667.75;;;33.15;34.95
30967;BME280;17649;51.836;8.330;2022-07-09T15:51:12;101667.34;;;33.38;37.41
30967;BME280;17649;51.836;8.330;2022-07-09T15:58:20;101661.78;;;30.38;40.07
30967;BME280;17649;51.836;8.330;2022-07-09T16:01:37;101676.41;;;28.64;48.86
30967;BME280;17649;51.836;8.330;2022-07-09T16:04:42;101675.59;;;29.47;50.06
30967;BME280;17649;51.836;8.330;2022-07-09T16:08:50;101684.31;;;30.93;46.47
30967;BME280;17649;51.836;8.330;2022-07-09T16:12:35;101668.19;;;32.05;46.19
30967;BME280;17649;51.836;8.330;2022-07-09T16:15:51;101667.84;;;31.17;48.18
30967;BME280;17649;51.836;8.330;2022-07-09T16:19:09;101684.81;;;31.59;47.40
30967;BME280;17649;51.836;8.330;2022-07-09T16:22:24;101682.47;;;30.15;58.07
30967;BME280;17649;51.836;8.330;2022-07-09T16:25:26;101660.91;;;29.28;70.14
30967;BME280;17649;51.836;8.330;2022-07-09T16:28:27;101656.00;;;29.54;60.90
30967;BME280;17649;51.836;8.330;2022-07-09T16:31:34;101671.78;;;30.15;52.71
30967;BME280;17649;51.836;8.330;2022-07-09T16:34:38;101685.19;;;30.57;48.33
30967;BME280;17649;51.836;8.330;2022-07-09T16:37:40;101697.81;;;30.85;46.88
30967;BME280;17649;51.836;8.330;2022-07-09T16:41:07;101670.25;;;32.03;43.73
30967;BME280;17649;51.836;8.330;2022-07-09T16:44:34;101691.44;;;30.28;53.07
30967;BME280;17649;51.836;8.330;2022-07-09T16:48:01;101704.66;;;28.42;72.49
30967;BME280;17649;51.836;8.330;2022-07-09T16:51:03;101718.09;;;29.40;60.98
30967;BME280;17649;51.836;8.330;2022-07-09T16:54:05;101717.94;;;28.50;61.98
30967;BME280;17649;51.836;8.330;2022-07-09T16:57:07;101719.97;;;29.02;60.03
30967;BME280;17649;51.836;8.330;2022-07-09T17:00:09;101718.59;;;29.06;54.52
30967;BME280;17649;51.836;8.330;2022-07-09T17:03:31;101727.69;;;28.27;59.44
30967;BME280;17649;51.836;8.330;2022-07-09T17:06:32;101728.50;;;26.66;74.65
30967;BME280;17649;51.836;8.330;2022-07-09T17:09:34;101736.16;;;25.93;86.67
30967;BME280;17649;51.836;8.330;2022-07-09T17:12:37;101740.75;;;25.21;97.30
30967;BME280;17649;51.836;8.330;2022-07-09T17:15:39;101737.16;;;24.59;100.00
30967;BME280;17649;51.836;8.330;2022-07-09T17:18:45;101737.97;;;24.59;100.00
30967;BME280;17649;51.836;8.330;2022-07-09T17:21:46;101740.25;;;24.17;100.00
30967;BME280;17649;51.836;8.330;2022-07-09T17:28:56;101758.41;;;23.93;100.00
30967;BME280;17649;51.836;8.330;2022-07-09T17:32:19;101755.31;;;23.41;100.00
30967;BME280;17649;51.836;8.330;2022-07-09T17:35:23;101744.31;;;23.16;100.00
30967;BME280;17649;51.836;8.330;2022-07-09T17:38:25;101739.06;;;23.07;100.00
30967;BME280;17649;51.836;8.330;2022-07-09T17:41:53;101760.97;;;22.88;100.00
30967;BME280;17649;51.836;8.330;2022-07-09T17:44:56;101756.81;;;22.45;100.00
30967;BME280;17649;51.836;8.330;2022-07-09T17:47:57;101753.19;;;22.37;100.00
30967;BME280;17649;51.836;8.330;2022-07-09T17:51:02;101767.63;;;22.42;100.00
30967;BME280;17649;51.836;8.330;2022-07-09T17:54:03;101758.38;;;22.57;100.00
30967;BME280;17649;51.836;8.330;2022-07-09T17:57:06;101757.63;;;22.46;100.00
30967;BME280;17649;51.836;8.330;2022-07-09T18:00:08;101764.78;;;22.65;100.00
30967;BME280;17649;51.836;8.330;2022-07-09T18:03:43;101778.13;;;22.73;100.00
30967;BME280;17649;51.836;8.330;2022-07-09T18:06:43;101773.91;;;21.99;100.00
30967;BME280;17649;51.836;8.330;2022-07-09T18:10:01;101788.09;;;21.78;100.00
30967;BME280;17649;51.836;8.330;2022-07-09T18:13:14;101788.59;;;21.71;100.00
30967;BME280;17649;51.836;8.330;2022-07-09T18:16:46;101778.13;;;21.60;100.00
30967;BME280;17649;51.836;8.330;2022-07-09T18:19:51;101774.31;;;21.32;100.00
30967;BME280;17649;51.836;8.330;2022-07-09T18:23:01;101772.84;;;20.96;100.00
30967;BME280;17649;51.836;8.330;2022-07-09T18:26:06;101804.19;;;20.99;100.00
30967;BME280;17649;51.836;8.330;2022-07-09T18:29:07;101814.97;;;20.85;100.00
30967;BME280;17649;51.836;8.330;2022-07-09T18:32:24;101813.66;;;20.79;100.00
30967;BME280;17649;51.836;8.330;2022-07-09T18:35:30;101829.47;;;20.57;100.00
30967;BME280;17649;51.836;8.330;2022-07-09T18:38:51;101822.41;;;20.46;100.00
30967;BME280;17649;51.836;8.330;2022-07-09T18:42:22;101809.81;;;20.16;100.00
30967;BME280;17649;51.836;8.330;2022-07-09T19:09:35;101852.13;;;19.18;100.00
30967;BME280;17649;51.836;8.330;2022-07-09T19:12:50;101849.84;;;19.13;100.00
30967;BME280;17649;51.836;8.330;2022-07-09T19:15:59;101854.38;;;19.11;100.00
30967;BME280;17649;51.836;8.330;2022-07-09T19:19:03;101849.03;;;19.00;100.00
30967;BME280;17649;51.836;8.330;2022-07-09T19:22:06;101857.75;;;18.88;100.00
30967;BME280;17649;51.836;8.330;2022-07-09T19:25:18;101859.44;;;18.89;100.00
30967;BME280;17649;51.836;8.330;2022-07-09T19:28:21;101863.44;;;18.82;100.00
30967;BME280;17649;51.836;8.330;2022-07-09T19:31:43;101873.44;;;18.76;100.00
30967;BME280;17649;51.836;8.330;2022-07-09T19:35:06;101863.78;;;18.64;100.00
30967;BME280;17649;51.836;8.330;2022-07-09T19:38:10;101876.44;;;18.58;100.00
30967;BME280;17649;51.836;8.330;2022-07-09T19:41:17;101884.63;;;18.53;100.00
30967;BME280;17649;51.836;8.330;2022-07-09T19:44:24;101880.31;;;18.39;100.00
30967;BME280;17649;51.836;8.330;2022-07-09T19:47:31;101885.66;;;18.25;100.00
30967;BME280;17649;51.836;8.330;2022-07-09T19:50:43;101891.09;;;18.22;100.00
30967;BME280;17649;51.836;8.330;2022-07-09T19:53:46;101896.44;;;18.21;100.00